sensor_id;sensor_type;location;lat;lon;timestamp;P1;durP1;ratioP1;P2;durP2;ratioP2
69410;SDS011;56604;48.652;9.194;2022-12-29T00:02:10;4.00;;;1.73;;
69410;SDS011;56604;48.652;9.194;2022-12-29T00:04:36;2.00;;;1.90;;
69410;SDS011;56604;48.652;9.194;2022-12-29T00:07:01;3.90;;;1.60;;
69410;SDS011;56604;48.652;9.194;2022-12-29T00:09:29;5.07;;;1.60;;
69410;SDS011;56604;48.652;9.194;2022-12-29T00:11:55;1.70;;;1.50;;
69410;SDS011;56604;48.652;9.194;2022-12-29T00:14:20;6.53;;;1.60;;
69410;SDS011;56604;48.652;9.194;2022-12-29T00:17:04;1.67;;;1.57;;
69410;SDS011;56604;48.652;9.194;2022-12-29T00:19:29;5.30;;;1.60;;
69410;SDS011;56604;48.652;9.194;2022-12-29T00:22:13;1.40;;;1.40;;
69410;SDS011;56604;48.652;9.194;2022-12-29T00:24:57;3.13;;;1.67;;
69410;SDS011;56604;48.652;9.194;2022-12-29T00:27:41;1.20;;;1.20;;
69410;SDS011;56604;48.652;9.194;2022-12-29T00:30:25;1.60;;;1.50;;
69410;SDS011;56604;48.652;9.194;2022-12-29T00:33:14;1.57;;;1.43;;
69410;SDS011;56604;48.652;9.194;2022-12-29T00:38:26;4.20;;;1.60;;
69410;SDS011;56604;48.652;9.194;2022-12-29T00:41:12;4.87;;;1.47;;
69410;SDS011;56604;48.652;9.194;2022-12-29T00:43:56;3.20;;;1.60;;
69410;SDS011;56604;48.652;9.194;2022-12-29T00:46:31;1.40;;;1.40;;
69410;SDS011;56604;48.652;9.194;2022-12-29T00:49:00;3.83;;;1.50;;
69410;SDS011;56604;48.652;9.194;2022-12-29T00:51:45;5.90;;;1.90;;
69410;SDS011;56604;48.652;9.194;2022-12-29T00:54:11;3.73;;;1.83;;
69410;SDS011;56604;48.652;9.194;2022-12-29T00:56:37;1.57;;;1.47;;
69410;SDS011;56604;48.652;9.194;2022-12-29T00:59:03;3.23;;;1.90;;
69410;SDS011;56604;48.652;9.194;2022-12-29T01:01:30;5.50;;;1.40;;
69410;SDS011;56604;48.652;9.194;2022-12-29T01:03:56;2.30;;;1.30;;
69410;SDS011;56604;48.652;9.194;2022-12-29T01:06:22;2.03;;;1.40;;
69410;SDS011;56604;48.652;9.194;2022-12-29T01:08:48;3.23;;;1.67;;
69410;SDS011;56604;48.652;9.194;2022-12-29T01:11:33;4.17;;;1.23;;
69410;SDS011;56604;48.652;9.194;2022-12-29T01:13:58;2.83;;;1.70;;
69410;SDS011;56604;48.652;9.194;2022-12-29T01:16:23;1.50;;;1.27;;
69410;SDS011;56604;48.652;9.194;2022-12-29T01:18:49;1.33;;;1.23;;
69410;SDS011;56604;48.652;9.194;2022-12-29T01:21:14;3.03;;;1.50;;
69410;SDS011;56604;48.652;9.194;2022-12-29T01:23:39;4.33;;;1.80;;
69410;SDS011;56604;48.652;9.194;2022-12-29T01:26:10;1.00;;;1.00;;
69410;SDS011;56604;48.652;9.194;2022-12-29T01:28:37;1.67;;;1.57;;
69410;SDS011;56604;48.652;9.194;2022-12-29T01:31:07;4.67;;;1.60;;
69410;SDS011;56604;48.652;9.194;2022-12-29T01:33:36;3.77;;;1.47;;
69410;SDS011;56604;48.652;9.194;2022-12-29T01:36:05;1.50;;;1.40;;
69410;SDS011;56604;48.652;9.194;2022-12-29T01:38:33;1.60;;;1.50;;
69410;SDS011;56604;48.652;9.194;2022-12-29T01:40:59;1.40;;;1.40;;
69410;SDS011;56604;48.652;9.194;2022-12-29T01:46:18;2.60;;;1.27;;
69410;SDS011;56604;48.652;9.194;2022-12-29T01:48:46;2.00;;;1.40;;
69410;SDS011;56604;48.652;9.194;2022-12-29T01:51:14;2.00;;;1.40;;
69410;SDS011;56604;48.652;9.194;2022-12-29T01:53:40;3.80;;;1.17;;
69410;SDS011;56604;48.652;9.194;2022-12-29T01:56:08;3.17;;;1.30;;
69410;SDS011;56604;48.652;9.194;2022-12-29T01:58:37;2.93;;;1.40;;
69410;SDS011;56604;48.652;9.194;2022-12-29T02:01:06;1.43;;;1.23;;
69410;SDS011;56604;48.652;9.194;2022-12-29T02:03:32;2.83;;;1.70;;
69410;SDS011;56604;48.652;9.194;2022-12-29T02:06:08;5.13;;;1.10;;
69410;SDS011;56604;48.652;9.194;2022-12-29T02:08:49;9.33;;;1.20;;
69410;SDS011;56604;48.652;9.194;2022-12-29T02:11:17;1.57;;;1.50;;
69410;SDS011;56604;48.652;9.194;2022-12-29T02:13:43;1.67;;;1.57;;
69410;SDS011;56604;48.652;9.194;2022-12-29T02:16:14;1.97;;;1.40;;
69410;SDS011;56604;48.652;9.194;2022-12-29T02:18:43;3.40;;;1.10;;
69410;SDS011;56604;48.652;9.194;2022-12-29T02:21:49;2.13;;;1.53;;
69410;SDS011;56604;48.652;9.194;2022-12-29T02:46:23;1.00;;;1.00;;
69410;SDS011;56604;48.652;9.194;2022-12-29T02:49:09;5.40;;;1.50;;
69410;SDS011;56604;48.652;9.194;2022-12-29T02:54:20;1.00;;;1.00;;
69410;SDS011;56604;48.652;9.194;2022-12-29T02:59:45;6.17;;;1.23;;
69410;SDS011;56604;48.652;9.194;2022-12-29T03:07:29;0.90;;;0.90;;
69410;SDS011;56604;48.652;9.194;2022-12-29T03:13:22;1.53;;;1.30;;
69410;SDS011;56604;48.652;9.194;2022-12-29T03:18:56;2.57;;;1.40;;
69410;SDS011;56604;48.652;9.194;2022-12-29T03:21:46;1.53;;;1.10;;
69410;SDS011;56604;48.652;9.194;2022-12-29T03:24:42;0.90;;;0.90;;
69410;SDS011;56604;48.652;9.194;2022-12-29T03:27:13;3.23;;;1.63;;
69410;SDS011;56604;48.652;9.194;2022-12-29T03:29:44;3.57;;;0.90;;
69410;SDS011;56604;48.652;9.194;2022-12-29T03:32:18;1.90;;;1.30;;
69410;SDS011;56604;48.652;9.194;2022-12-29T03:34:45;1.07;;;1.07;;
69410;SDS011;56604;48.652;9.194;2022-12-29T03:37:14;1.30;;;1.30;;
69410;SDS011;56604;48.652;9.194;2022-12-29T03:39:42;1.10;;;1.00;;
69410;SDS011;56604;48.652;9.194;2022-12-29T03:42:09;11.73;;;1.53;;
69410;SDS011;56604;48.652;9.194;2022-12-29T03:44:39;1.20;;;1.20;;
69410;SDS011;56604;48.652;9.194;2022-12-29T03:47:07;1.20;;;1.20;;
69410;SDS011;56604;48.652;9.194;2022-12-29T03:49:33;1.63;;;1.23;;
69410;SDS011;56604;48.652;9.194;2022-12-29T03:51:58;1.10;;;1.10;;
69410;SDS011;56604;48.652;9.194;2022-12-29T03:54:24;4.13;;;1.10;;
69410;SDS011;56604;48.652;9.194;2022-12-29T03:56:50;2.00;;;1.10;;
69410;SDS011;56604;48.652;9.194;2022-12-29T03:59:15;1.53;;;1.10;;
69410;SDS011;56604;48.652;9.194;2022-12-29T04:01:40;1.40;;;1.30;;
69410;SDS011;56604;48.652;9.194;2022-12-29T04:04:06;2.10;;;1.50;;
69410;SDS011;56604;48.652;9.194;2022-12-29T04:06:31;2.73;;;1.40;;
69410;SDS011;56604;48.652;9.194;2022-12-29T04:08:57;1.00;;;1.00;;
69410;SDS011;56604;48.652;9.194;2022-12-29T04:11:22;3.97;;;1.70;;
69410;SDS011;56604;48.652;9.194;2022-12-29T04:13:47;5.73;;;1.67;;
69410;SDS011;56604;48.652;9.194;2022-12-29T04:16:12;2.70;;;1.43;;
69410;SDS011;56604;48.652;9.194;2022-12-29T04:18:38;3.60;;;1.43;;
69410;SDS011;56604;48.652;9.194;2022-12-29T04:21:03;3.03;;;1.03;;
69410;SDS011;56604;48.652;9.194;2022-12-29T04:23:30;2.43;;;1.30;;
69410;SDS011;56604;48.652;9.194;2022-12-29T04:25:57;2.10;;;1.30;;
69410;SDS011;56604;48.652;9.194;2022-12-29T04:28:23;2.50;;;1.30;;
69410;SDS011;56604;48.652;9.194;2022-12-29T04:30:49;7.50;;;2.50;;
69410;SDS011;56604;48.652;9.194;2022-12-29T04:33:15;3.50;;;1.40;;
69410;SDS011;56604;48.652;9.194;2022-12-29T04:35:41;2.00;;;1.43;;
69410;SDS011;56604;48.652;9.194;2022-12-29T04:38:07;1.47;;;1.43;;
69410;SDS011;56604;48.652;9.194;2022-12-29T04:40:32;2.97;;;1.43;;
69410;SDS011;56604;48.652;9.194;2022-12-29T04:42:57;4.33;;;1.57;;
69410;SDS011;56604;48.652;9.194;2022-12-29T04:45:23;3.03;;;1.77;;
69410;SDS011;56604;48.652;9.194;2022-12-29T04:47:48;1.00;;;1.00;;
69410;SDS011;56604;48.652;9.194;2022-12-29T04:50:13;1.33;;;1.20;;
69410;SDS011;56604;48.652;9.194;2022-12-29T04:52:39;1.50;;;1.40;;
69410;SDS011;56604;48.652;9.194;2022-12-29T04:55:04;1.50;;;1.50;;
69410;SDS011;56604;48.652;9.194;2022-12-29T04:57:30;1.43;;;1.43;;
69410;SDS011;56604;48.652;9.194;2022-12-29T04:59:55;2.90;;;1.30;;
69410;SDS011;56604;48.652;9.194;2022-12-29T05:02:21;5.50;;;1.33;;
69410;SDS011;56604;48.652;9.194;2022-12-29T05:04:46;2.93;;;1.23;;
69410;SDS011;56604;48.652;9.194;2022-12-29T05:07:12;8.47;;;1.80;;
69410;SDS011;56604;48.652;9.194;2022-12-29T05:09:37;1.50;;;1.40;;
69410;SDS011;56604;48.652;9.194;2022-12-29T05:12:03;1.57;;;1.20;;
69410;SDS011;56604;48.652;9.194;2022-12-29T05:14:28;1.67;;;1.40;;
69410;SDS011;56604;48.652;9.194;2022-12-29T05:16:54;3.07;;;1.43;;
69410;SDS011;56604;48.652;9.194;2022-12-29T05:19:19;2.70;;;1.47;;
69410;SDS011;56604;48.652;9.194;2022-12-29T05:21:45;1.57;;;1.47;;
69410;SDS011;56604;48.652;9.194;2022-12-29T05:24:10;1.10;;;1.10;;
69410;SDS011;56604;48.652;9.194;2022-12-29T05:26:35;1.70;;;1.60;;
69410;SDS011;56604;48.652;9.194;2022-12-29T05:29:00;1.57;;;1.47;;
69410;SDS011;56604;48.652;9.194;2022-12-29T05:31:26;5.57;;;1.33;;
69410;SDS011;56604;48.652;9.194;2022-12-29T05:33:52;1.40;;;1.30;;
69410;SDS011;56604;48.652;9.194;2022-12-29T05:36:18;3.03;;;1.60;;
69410;SDS011;56604;48.652;9.194;2022-12-29T05:38:43;1.10;;;1.10;;
69410;SDS011;56604;48.652;9.194;2022-12-29T05:41:09;2.30;;;1.50;;
69410;SDS011;56604;48.652;9.194;2022-12-29T05:43:34;2.30;;;1.83;;
69410;SDS011;56604;48.652;9.194;2022-12-29T05:45:59;3.80;;;1.60;;
69410;SDS011;56604;48.652;9.194;2022-12-29T05:48:25;4.43;;;1.63;;
69410;SDS011;56604;48.652;9.194;2022-12-29T05:50:51;1.00;;;1.00;;
69410;SDS011;56604;48.652;9.194;2022-12-29T05:53:17;3.70;;;1.40;;
69410;SDS011;56604;48.652;9.194;2022-12-29T05:55:43;1.93;;;1.50;;
69410;SDS011;56604;48.652;9.194;2022-12-29T05:58:09;1.47;;;1.30;;
69410;SDS011;56604;48.652;9.194;2022-12-29T06:00:34;1.57;;;1.47;;
69410;SDS011;56604;48.652;9.194;2022-12-29T06:03:00;1.77;;;1.63;;
69410;SDS011;56604;48.652;9.194;2022-12-29T06:05:25;6.17;;;1.30;;
69410;SDS011;56604;48.652;9.194;2022-12-29T06:07:50;1.90;;;1.50;;
69410;SDS011;56604;48.652;9.194;2022-12-29T06:10:16;3.27;;;1.20;;
69410;SDS011;56604;48.652;9.194;2022-12-29T06:12:41;1.53;;;1.50;;
69410;SDS011;56604;48.652;9.194;2022-12-29T06:15:07;3.87;;;2.07;;
69410;SDS011;56604;48.652;9.194;2022-12-29T06:17:33;1.40;;;1.40;;
69410;SDS011;56604;48.652;9.194;2022-12-29T06:19:58;8.83;;;1.53;;
69410;SDS011;56604;48.652;9.194;2022-12-29T06:22:23;1.37;;;1.30;;
69410;SDS011;56604;48.652;9.194;2022-12-29T06:24:49;1.53;;;1.40;;
69410;SDS011;56604;48.652;9.194;2022-12-29T06:27:14;9.00;;;1.40;;
69410;SDS011;56604;48.652;9.194;2022-12-29T06:29:40;1.53;;;1.40;;
69410;SDS011;56604;48.652;9.194;2022-12-29T06:32:05;3.17;;;1.17;;
69410;SDS011;56604;48.652;9.194;2022-12-29T06:34:31;7.03;;;1.60;;
69410;SDS011;56604;48.652;9.194;2022-12-29T06:36:56;2.80;;;1.40;;
69410;SDS011;56604;48.652;9.194;2022-12-29T06:39:22;5.90;;;1.30;;
69410;SDS011;56604;48.652;9.194;2022-12-29T06:41:47;2.60;;;1.40;;
69410;SDS011;56604;48.652;9.194;2022-12-29T06:44:12;1.57;;;1.47;;
69410;SDS011;56604;48.652;9.194;2022-12-29T06:46:37;1.60;;;1.50;;
69410;SDS011;56604;48.652;9.194;2022-12-29T06:49:03;1.70;;;1.70;;
69410;SDS011;56604;48.652;9.194;2022-12-29T06:51:28;1.47;;;1.37;;
69410;SDS011;56604;48.652;9.194;2022-12-29T06:53:53;6.73;;;1.57;;
69410;SDS011;56604;48.652;9.194;2022-12-29T06:56:18;3.90;;;1.30;;
69410;SDS011;56604;48.652;9.194;2022-12-29T06:58:44;1.10;;;1.10;;
69410;SDS011;56604;48.652;9.194;2022-12-29T07:01:09;3.70;;;1.57;;
69410;SDS011;56604;48.652;9.194;2022-12-29T07:03:34;2.23;;;1.30;;
69410;SDS011;56604;48.652;9.194;2022-12-29T07:06:00;1.23;;;1.23;;
69410;SDS011;56604;48.652;9.194;2022-12-29T07:08:25;1.60;;;1.30;;
69410;SDS011;56604;48.652;9.194;2022-12-29T07:10:50;1.37;;;1.27;;
69410;SDS011;56604;48.652;9.194;2022-12-29T07:13:16;1.90;;;1.13;;
69410;SDS011;56604;48.652;9.194;2022-12-29T07:15:41;2.83;;;1.37;;
69410;SDS011;56604;48.652;9.194;2022-12-29T07:18:07;2.07;;;1.20;;
69410;SDS011;56604;48.652;9.194;2022-12-29T07:20:32;1.30;;;1.20;;
69410;SDS011;56604;48.652;9.194;2022-12-29T07:22:57;3.57;;;1.50;;
69410;SDS011;56604;48.652;9.194;2022-12-29T07:25:23;1.37;;;1.27;;
69410;SDS011;56604;48.652;9.194;2022-12-29T07:27:48;1.53;;;1.40;;
69410;SDS011;56604;48.652;9.194;2022-12-29T07:30:14;1.97;;;1.60;;
69410;SDS011;56604;48.652;9.194;2022-12-29T07:32:40;1.40;;;1.30;;
69410;SDS011;56604;48.652;9.194;2022-12-29T07:35:05;2.60;;;1.27;;
69410;SDS011;56604;48.652;9.194;2022-12-29T07:37:31;3.53;;;1.33;;
69410;SDS011;56604;48.652;9.194;2022-12-29T07:39:57;3.33;;;1.23;;
69410;SDS011;56604;48.652;9.194;2022-12-29T07:42:22;1.50;;;1.23;;
69410;SDS011;56604;48.652;9.194;2022-12-29T07:44:47;5.10;;;1.60;;
69410;SDS011;56604;48.652;9.194;2022-12-29T07:47:13;1.53;;;1.43;;
69410;SDS011;56604;48.652;9.194;2022-12-29T07:49:38;1.43;;;1.33;;
69410;SDS011;56604;48.652;9.194;2022-12-29T07:52:03;2.37;;;1.60;;
69410;SDS011;56604;48.652;9.194;2022-12-29T07:54:29;1.40;;;1.30;;
69410;SDS011;56604;48.652;9.194;2022-12-29T07:56:54;1.80;;;1.10;;
69410;SDS011;56604;48.652;9.194;2022-12-29T07:59:19;1.03;;;1.03;;
69410;SDS011;56604;48.652;9.194;2022-12-29T08:01:45;3.27;;;1.43;;
69410;SDS011;56604;48.652;9.194;2022-12-29T08:04:10;3.90;;;1.30;;
69410;SDS011;56604;48.652;9.194;2022-12-29T08:06:35;3.60;;;2.10;;
69410;SDS011;56604;48.652;9.194;2022-12-29T08:09:02;3.90;;;1.33;;
69410;SDS011;56604;48.652;9.194;2022-12-29T08:11:28;1.60;;;1.30;;
69410;SDS011;56604;48.652;9.194;2022-12-29T08:13:54;3.50;;;1.40;;
69410;SDS011;56604;48.652;9.194;2022-12-29T08:16:19;1.10;;;1.10;;
69410;SDS011;56604;48.652;9.194;2022-12-29T08:18:44;3.33;;;1.30;;
69410;SDS011;56604;48.652;9.194;2022-12-29T08:21:10;2.70;;;1.23;;
69410;SDS011;56604;48.652;9.194;2022-12-29T08:23:35;1.87;;;1.77;;
69410;SDS011;56604;48.652;9.194;2022-12-29T08:26:02;1.30;;;1.30;;
69410;SDS011;56604;48.652;9.194;2022-12-29T08:28:29;1.70;;;1.43;;
69410;SDS011;56604;48.652;9.194;2022-12-29T08:30:56;2.77;;;1.37;;
69410;SDS011;56604;48.652;9.194;2022-12-29T08:33:22;1.50;;;1.27;;
69410;SDS011;56604;48.652;9.194;2022-12-29T08:35:48;2.70;;;1.30;;
69410;SDS011;56604;48.652;9.194;2022-12-29T08:38:14;1.00;;;1.00;;
69410;SDS011;56604;48.652;9.194;2022-12-29T08:40:39;1.20;;;1.10;;
69410;SDS011;56604;48.652;9.194;2022-12-29T08:43:05;3.30;;;1.53;;
69410;SDS011;56604;48.652;9.194;2022-12-29T08:45:30;1.50;;;1.33;;
69410;SDS011;56604;48.652;9.194;2022-12-29T08:47:56;3.20;;;1.30;;
69410;SDS011;56604;48.652;9.194;2022-12-29T08:50:22;1.60;;;1.30;;
69410;SDS011;56604;48.652;9.194;2022-12-29T08:52:47;3.03;;;1.53;;
69410;SDS011;56604;48.652;9.194;2022-12-29T08:55:12;1.77;;;1.30;;
69410;SDS011;56604;48.652;9.194;2022-12-29T08:57:37;3.97;;;1.40;;
69410;SDS011;56604;48.652;9.194;2022-12-29T09:00:03;1.27;;;1.23;;
69410;SDS011;56604;48.652;9.194;2022-12-29T09:02:29;3.13;;;1.57;;
69410;SDS011;56604;48.652;9.194;2022-12-29T09:04:55;1.20;;;1.20;;
69410;SDS011;56604;48.652;9.194;2022-12-29T09:07:22;1.43;;;1.33;;
69410;SDS011;56604;48.652;9.194;2022-12-29T09:09:48;1.27;;;1.17;;
69410;SDS011;56604;48.652;9.194;2022-12-29T09:12:13;8.63;;;1.50;;
69410;SDS011;56604;48.652;9.194;2022-12-29T09:14:40;1.20;;;1.03;;
69410;SDS011;56604;48.652;9.194;2022-12-29T09:17:07;1.53;;;1.40;;
69410;SDS011;56604;48.652;9.194;2022-12-29T09:19:51;1.60;;;1.40;;
69410;SDS011;56604;48.652;9.194;2022-12-29T09:22:17;1.40;;;1.40;;
69410;SDS011;56604;48.652;9.194;2022-12-29T09:24:43;5.60;;;1.30;;
69410;SDS011;56604;48.652;9.194;2022-12-29T09:27:09;1.63;;;1.53;;
69410;SDS011;56604;48.652;9.194;2022-12-29T09:29:34;2.20;;;1.40;;
69410;SDS011;56604;48.652;9.194;2022-12-29T09:31:59;2.50;;;1.50;;
69410;SDS011;56604;48.652;9.194;2022-12-29T09:34:25;6.40;;;1.20;;
69410;SDS011;56604;48.652;9.194;2022-12-29T09:36:50;7.20;;;1.40;;
69410;SDS011;56604;48.652;9.194;2022-12-29T09:39:16;2.30;;;1.30;;
69410;SDS011;56604;48.652;9.194;2022-12-29T09:41:52;1.23;;;1.23;;
69410;SDS011;56604;48.652;9.194;2022-12-29T09:47:09;10.13;;;1.80;;
69410;SDS011;56604;48.652;9.194;2022-12-29T09:52:15;4.73;;;1.50;;
69410;SDS011;56604;48.652;9.194;2022-12-29T09:57:15;4.50;;;1.80;;
69410;SDS011;56604;48.652;9.194;2022-12-29T09:59:45;3.13;;;1.10;;
69410;SDS011;56604;48.652;9.194;2022-12-29T10:04:51;1.40;;;1.30;;
69410;SDS011;56604;48.652;9.194;2022-12-29T10:07:23;2.87;;;1.40;;
69410;SDS011;56604;48.652;9.194;2022-12-29T10:18:18;2.17;;;1.50;;
69410;SDS011;56604;48.652;9.194;2022-12-29T10:23:50;6.37;;;1.77;;
69410;SDS011;56604;48.652;9.194;2022-12-29T10:26:19;2.60;;;1.40;;
69410;SDS011;56604;48.652;9.194;2022-12-29T10:28:52;1.50;;;1.40;;
69410;SDS011;56604;48.652;9.194;2022-12-29T10:31:22;12.10;;;1.47;;
69410;SDS011;56604;48.652;9.194;2022-12-29T10:33:58;1.80;;;1.60;;
69410;SDS011;56604;48.652;9.194;2022-12-29T10:41:57;1.63;;;1.50;;
69410;SDS011;56604;48.652;9.194;2022-12-29T10:44:34;1.40;;;1.30;;
69410;SDS011;56604;48.652;9.194;2022-12-29T10:47:04;2.37;;;2.00;;
69410;SDS011;56604;48.652;9.194;2022-12-29T10:49:38;1.50;;;1.40;;
69410;SDS011;56604;48.652;9.194;2022-12-29T10:52:06;3.83;;;1.40;;
69410;SDS011;56604;48.652;9.194;2022-12-29T10:54:38;1.43;;;1.43;;
69410;SDS011;56604;48.652;9.194;2022-12-29T10:57:15;1.60;;;1.50;;
69410;SDS011;56604;48.652;9.194;2022-12-29T10:59:52;1.73;;;1.50;;
69410;SDS011;56604;48.652;9.194;2022-12-29T11:07:34;1.40;;;1.30;;
69410;SDS011;56604;48.652;9.194;2022-12-29T11:15:51;10.50;;;1.13;;
69410;SDS011;56604;48.652;9.194;2022-12-29T11:18:24;4.10;;;1.70;;
69410;SDS011;56604;48.652;9.194;2022-12-29T11:20:58;1.30;;;1.30;;
69410;SDS011;56604;48.652;9.194;2022-12-29T11:23:29;2.20;;;1.47;;
69410;SDS011;56604;48.652;9.194;2022-12-29T11:28:41;2.20;;;1.60;;
69410;SDS011;56604;48.652;9.194;2022-12-29T11:31:09;3.10;;;1.40;;
69410;SDS011;56604;48.652;9.194;2022-12-29T11:33:36;2.93;;;1.33;;
69410;SDS011;56604;48.652;9.194;2022-12-29T11:38:42;5.83;;;1.80;;
69410;SDS011;56604;48.652;9.194;2022-12-29T11:41:13;1.80;;;1.70;;
69410;SDS011;56604;48.652;9.194;2022-12-29T11:43:44;1.90;;;1.47;;
69410;SDS011;56604;48.652;9.194;2022-12-29T11:46:24;1.70;;;1.60;;
69410;SDS011;56604;48.652;9.194;2022-12-29T11:48:52;1.43;;;1.43;;
69410;SDS011;56604;48.652;9.194;2022-12-29T11:51:25;1.93;;;1.80;;
69410;SDS011;56604;48.652;9.194;2022-12-29T11:53:55;1.70;;;1.60;;
69410;SDS011;56604;48.652;9.194;2022-12-29T11:56:34;1.73;;;1.50;;
69410;SDS011;56604;48.652;9.194;2022-12-29T11:59:29;1.50;;;1.40;;
69410;SDS011;56604;48.652;9.194;2022-12-29T12:02:08;4.63;;;1.57;;
69410;SDS011;56604;48.652;9.194;2022-12-29T12:04:46;4.07;;;1.87;;
69410;SDS011;56604;48.652;9.194;2022-12-29T12:07:23;1.90;;;1.30;;
69410;SDS011;56604;48.652;9.194;2022-12-29T12:10:00;1.70;;;1.57;;
69410;SDS011;56604;48.652;9.194;2022-12-29T12:12:29;1.60;;;1.43;;
69410;SDS011;56604;48.652;9.194;2022-12-29T12:15:00;3.07;;;1.70;;
69410;SDS011;56604;48.652;9.194;2022-12-29T12:17:44;5.50;;;1.80;;
69410;SDS011;56604;48.652;9.194;2022-12-29T12:20:22;1.90;;;1.80;;
69410;SDS011;56604;48.652;9.194;2022-12-29T12:28:36;1.57;;;1.57;;
69410;SDS011;56604;48.652;9.194;2022-12-29T12:31:14;1.40;;;1.30;;
69410;SDS011;56604;48.652;9.194;2022-12-29T12:33:46;1.60;;;1.50;;
69410;SDS011;56604;48.652;9.194;2022-12-29T12:36:22;1.40;;;1.30;;
69410;SDS011;56604;48.652;9.194;2022-12-29T12:39:17;3.60;;;1.83;;
69410;SDS011;56604;48.652;9.194;2022-12-29T12:41:56;10.13;;;2.03;;
69410;SDS011;56604;48.652;9.194;2022-12-29T12:47:34;1.90;;;1.80;;
69410;SDS011;56604;48.652;9.194;2022-12-29T13:17:42;4.20;;;2.00;;
69410;SDS011;56604;48.652;9.194;2022-12-29T13:23:16;1.57;;;1.50;;
69410;SDS011;56604;48.652;9.194;2022-12-29T13:25:58;2.03;;;1.93;;
69410;SDS011;56604;48.652;9.194;2022-12-29T13:28:28;3.23;;;1.60;;
69410;SDS011;56604;48.652;9.194;2022-12-29T13:32:01;2.20;;;1.50;;
69410;SDS011;56604;48.652;9.194;2022-12-29T13:39:13;1.53;;;1.43;;
69410;SDS011;56604;48.652;9.194;2022-12-29T13:44:43;6.07;;;2.23;;
69410;SDS011;56604;48.652;9.194;2022-12-29T13:49:46;1.80;;;1.70;;
69410;SDS011;56604;48.652;9.194;2022-12-29T13:52:18;1.57;;;1.47;;
69410;SDS011;56604;48.652;9.194;2022-12-29T13:54:57;2.30;;;2.10;;
69410;SDS011;56604;48.652;9.194;2022-12-29T13:57:44;2.30;;;1.50;;
69410;SDS011;56604;48.652;9.194;2022-12-29T14:00:18;2.77;;;1.90;;
69410;SDS011;56604;48.652;9.194;2022-12-29T14:07:42;3.00;;;1.70;;
69410;SDS011;56604;48.652;9.194;2022-12-29T14:10:23;4.63;;;1.90;;
69410;SDS011;56604;48.652;9.194;2022-12-29T14:13:02;3.90;;;1.80;;
69410;SDS011;56604;48.652;9.194;2022-12-29T14:15:39;1.73;;;1.63;;
69410;SDS011;56604;48.652;9.194;2022-12-29T14:20:46;1.90;;;1.60;;
69410;SDS011;56604;48.652;9.194;2022-12-29T14:28:31;4.40;;;1.70;;
69410;SDS011;56604;48.652;9.194;2022-12-29T14:30:59;1.70;;;1.60;;
69410;SDS011;56604;48.652;9.194;2022-12-29T14:33:30;4.93;;;1.63;;
69410;SDS011;56604;48.652;9.194;2022-12-29T14:36:18;4.13;;;1.70;;
69410;SDS011;56604;48.652;9.194;2022-12-29T14:38:45;1.93;;;1.77;;
69410;SDS011;56604;48.652;9.194;2022-12-29T14:44:31;2.00;;;1.90;;
69410;SDS011;56604;48.652;9.194;2022-12-29T14:46:46;8.90;;;1.80;;
69410;SDS011;56604;48.652;9.194;2022-12-29T14:49:15;3.60;;;1.63;;
69410;SDS011;56604;48.652;9.194;2022-12-29T14:51:44;1.53;;;1.50;;
69410;SDS011;56604;48.652;9.194;2022-12-29T14:57:36;2.70;;;2.17;;
69410;SDS011;56604;48.652;9.194;2022-12-29T15:00:05;2.27;;;2.00;;
69410;SDS011;56604;48.652;9.194;2022-12-29T15:02:42;4.50;;;1.70;;
69410;SDS011;56604;48.652;9.194;2022-12-29T15:08:25;4.30;;;1.50;;
69410;SDS011;56604;48.652;9.194;2022-12-29T15:10:56;6.73;;;1.90;;
69410;SDS011;56604;48.652;9.194;2022-12-29T15:13:35;4.73;;;2.23;;
69410;SDS011;56604;48.652;9.194;2022-12-29T15:16:03;3.90;;;1.50;;
69410;SDS011;56604;48.652;9.194;2022-12-29T15:18:29;1.80;;;1.70;;
69410;SDS011;56604;48.652;9.194;2022-12-29T15:20:57;2.00;;;1.90;;
69410;SDS011;56604;48.652;9.194;2022-12-29T15:23:25;1.97;;;1.80;;
69410;SDS011;56604;48.652;9.194;2022-12-29T15:25:56;2.17;;;2.07;;
69410;SDS011;56604;48.652;9.194;2022-12-29T15:28:23;2.20;;;2.07;;
69410;SDS011;56604;48.652;9.194;2022-12-29T15:30:57;3.57;;;2.00;;
69410;SDS011;56604;48.652;9.194;2022-12-29T15:33:28;4.40;;;2.30;;
69410;SDS011;56604;48.652;9.194;2022-12-29T15:35:55;2.50;;;2.27;;
69410;SDS011;56604;48.652;9.194;2022-12-29T15:38:26;1.87;;;1.77;;
69410;SDS011;56604;48.652;9.194;2022-12-29T15:41:02;2.27;;;1.97;;
69410;SDS011;56604;48.652;9.194;2022-12-29T15:46:11;2.00;;;1.90;;
69410;SDS011;56604;48.652;9.194;2022-12-29T15:48:37;2.10;;;1.90;;
69410;SDS011;56604;48.652;9.194;2022-12-29T15:51:08;4.13;;;2.03;;
69410;SDS011;56604;48.652;9.194;2022-12-29T15:53:53;2.47;;;1.80;;
69410;SDS011;56604;48.652;9.194;2022-12-29T15:56:19;2.40;;;1.50;;
69410;SDS011;56604;48.652;9.194;2022-12-29T15:58:48;1.77;;;1.67;;
69410;SDS011;56604;48.652;9.194;2022-12-29T16:01:31;3.13;;;1.70;;
69410;SDS011;56604;48.652;9.194;2022-12-29T16:04:03;2.03;;;1.67;;
69410;SDS011;56604;48.652;9.194;2022-12-29T16:09:04;4.73;;;2.60;;
69410;SDS011;56604;48.652;9.194;2022-12-29T16:11:41;3.83;;;3.07;;
69410;SDS011;56604;48.652;9.194;2022-12-29T16:14:14;4.30;;;2.07;;
69410;SDS011;56604;48.652;9.194;2022-12-29T16:16:43;1.97;;;1.70;;
69410;SDS011;56604;48.652;9.194;2022-12-29T16:19:17;2.03;;;1.93;;
69410;SDS011;56604;48.652;9.194;2022-12-29T16:21:52;4.33;;;2.00;;
69410;SDS011;56604;48.652;9.194;2022-12-29T16:24:19;2.00;;;1.90;;
69410;SDS011;56604;48.652;9.194;2022-12-29T16:26:51;7.17;;;2.80;;
69410;SDS011;56604;48.652;9.194;2022-12-29T16:29:23;6.20;;;2.00;;
69410;SDS011;56604;48.652;9.194;2022-12-29T16:31:50;1.90;;;1.80;;
69410;SDS011;56604;48.652;9.194;2022-12-29T16:34:29;2.23;;;2.03;;
69410;SDS011;56604;48.652;9.194;2022-12-29T16:36:57;6.00;;;4.00;;
69410;SDS011;56604;48.652;9.194;2022-12-29T16:39:35;9.97;;;3.17;;
69410;SDS011;56604;48.652;9.194;2022-12-29T16:47:54;2.80;;;1.93;;
69410;SDS011;56604;48.652;9.194;2022-12-29T16:50:46;2.50;;;2.30;;
69410;SDS011;56604;48.652;9.194;2022-12-29T16:55:52;7.73;;;2.93;;
69410;SDS011;56604;48.652;9.194;2022-12-29T16:58:19;2.70;;;2.50;;
69410;SDS011;56604;48.652;9.194;2022-12-29T17:00:48;3.20;;;3.03;;
69410;SDS011;56604;48.652;9.194;2022-12-29T17:03:14;4.50;;;2.83;;
69410;SDS011;56604;48.652;9.194;2022-12-29T17:05:40;2.90;;;2.70;;
69410;SDS011;56604;48.652;9.194;2022-12-29T17:08:17;3.33;;;2.33;;
69410;SDS011;56604;48.652;9.194;2022-12-29T17:10:51;4.00;;;2.27;;
69410;SDS011;56604;48.652;9.194;2022-12-29T17:13:37;3.23;;;2.33;;
69410;SDS011;56604;48.652;9.194;2022-12-29T17:16:03;3.07;;;2.50;;
69410;SDS011;56604;48.652;9.194;2022-12-29T17:18:34;6.03;;;2.40;;
69410;SDS011;56604;48.652;9.194;2022-12-29T17:21:00;5.13;;;3.57;;
69410;SDS011;56604;48.652;9.194;2022-12-29T17:23:26;13.93;;;7.53;;
69410;SDS011;56604;48.652;9.194;2022-12-29T17:25:54;8.87;;;7.70;;
69410;SDS011;56604;48.652;9.194;2022-12-29T17:30:54;4.10;;;3.07;;
69410;SDS011;56604;48.652;9.194;2022-12-29T17:33:26;5.20;;;3.17;;
69410;SDS011;56604;48.652;9.194;2022-12-29T17:35:56;5.07;;;3.67;;
69410;SDS011;56604;48.652;9.194;2022-12-29T17:38:31;6.73;;;3.83;;
69410;SDS011;56604;48.652;9.194;2022-12-29T17:41:00;4.40;;;4.00;;
69410;SDS011;56604;48.652;9.194;2022-12-29T17:43:25;3.50;;;3.20;;
69410;SDS011;56604;48.652;9.194;2022-12-29T17:45:55;3.13;;;2.90;;
69410;SDS011;56604;48.652;9.194;2022-12-29T17:48:23;4.00;;;3.50;;
69410;SDS011;56604;48.652;9.194;2022-12-29T17:50:49;10.13;;;3.90;;
69410;SDS011;56604;48.652;9.194;2022-12-29T17:53:18;4.53;;;3.90;;
69410;SDS011;56604;48.652;9.194;2022-12-29T17:55:46;4.33;;;3.97;;
69410;SDS011;56604;48.652;9.194;2022-12-29T18:00:45;8.50;;;3.67;;
69410;SDS011;56604;48.652;9.194;2022-12-29T18:03:15;5.73;;;3.30;;